Fushun, China
Current Conditions -  °F | °C
As of 9:30 AM on Friday 19 Dec 2014 (Local Time) from ZYTX Reporting Station
Overcast Overcast  
Wind Chill: 24°   Ceiling: 4000
Heat Index: 32°   Visibility: 6mi
Dew Point: 21°   Wind: 9mph
Humidity: 64%   Direction: 160°SSE
Pressure: 30.15"   Gusts: NA
Location:  41.87°N, 123.88°E
Report Text: ZYTX 190130Z 16004MPS 130V200 9999 OVC040 00/M06 Q1021 NOSIG
Loading
Personal Weather Stations






























Interactive Weather Map New forecast layout! Learn more

10-Day Weather Forecast

Advertisements
Track Severe Weather on mobile